Time;durP1;ratioP1;P1;durP2;ratioP2;P2;SDS_P1;SDS_P2;PMS_P1;PMS_P2;Temp;Humidity;BMP_temperature;BMP_pressure;BME280_temperature;BME280_humidity;BME280_pressure;Samples;Min_cycle;Max_cycle;Signal;HPM_P1;HPM_P2
2023/10/03 00:02:05;;;;;;;39.10;18.92;;;19.00;99.90;;;;;;5071000;28;20052;-67
2023/10/03 00:04:31;;;;;;;39.38;19.40;;;19.00;99.90;;;;;;5073904;28;20083;-67
2023/10/03 00:06:58;;;;;;;37.50;19.52;;;19.00;99.90;;;;;;5073472;28;20388;-67
2023/10/03 00:09:23;;;;;;;34.72;18.35;;;18.90;99.90;;;;;;5071210;28;20021;-67
2023/10/03 00:11:49;;;;;;;39.15;21.17;;;18.90;99.90;;;;;;5073367;28;20074;-67
2023/10/03 00:14:16;;;;;;;40.28;19.20;;;18.90;99.90;;;;;;5072668;28;20425;-68
2023/10/03 00:16:43;;;;;;;37.08;17.73;;;18.90;99.90;;;;;;5073608;28;20032;-68
2023/10/03 00:19:08;;;;;;;38.10;18.23;;;18.80;99.90;;;;;;5073197;28;20024;-67
2023/10/03 00:21:35;;;;;;;36.33;17.70;;;18.80;99.90;;;;;;5073470;28;20036;-67
2023/10/03 00:24:01;;;;;;;35.83;17.30;;;18.80;99.90;;;;;;5073231;28;20104;-67
2023/10/03 00:26:28;;;;;;;35.97;18.38;;;18.80;99.90;;;;;;5073285;28;20043;-67
2023/10/03 00:28:57;;;;;;;34.58;16.52;;;18.80;99.90;;;;;;5073483;28;20055;-67
2023/10/03 00:31:23;;;;;;;35.00;16.83;;;18.80;99.90;;;;;;5074632;28;20025;-67
2023/10/03 00:33:48;;;;;;;36.50;18.20;;;18.80;99.90;;;;;;5074286;28;20522;-68
2023/10/03 00:36:23;;;;;;;36.47;17.67;;;18.80;99.90;;;;;;5074070;28;20044;-68
2023/10/03 00:38:53;;;;;;;37.45;17.45;;;18.80;99.90;;;;;;5074528;28;20037;-67
2023/10/03 00:41:19;;;;;;;33.08;15.88;;;18.80;99.90;;;;;;5074370;28;20031;-67
2023/10/03 00:44:00;;;;;;;36.15;17.10;;;18.80;99.90;;;;;;5074373;28;20469;-67
2023/10/03 00:46:27;;;;;;;33.87;16.47;;;18.80;99.90;;;;;;5074580;28;20158;-67
2023/10/03 00:48:53;;;;;;;34.70;16.73;;;18.80;99.90;;;;;;5074294;28;20035;-67
2023/10/03 00:51:20;;;;;;;35.88;17.20;;;18.90;99.90;;;;;;5072811;28;20048;-68
2023/10/03 00:53:47;;;;;;;35.47;16.13;;;18.90;99.90;;;;;;5073667;28;20036;-67
2023/10/03 00:56:14;;;;;;;32.53;15.43;;;18.90;99.90;;;;;;5074211;28;20501;-68
2023/10/03 00:58:41;;;;;;;38.00;17.45;;;18.90;99.90;;;;;;5074364;28;20103;-67
2023/10/03 01:01:09;;;;;;;36.35;16.13;;;19.00;99.90;;;;;;5073903;28;20429;-67
2023/10/03 01:03:36;;;;;;;35.60;15.70;;;18.90;99.90;;;;;;5073923;28;20060;-68
2023/10/03 01:06:05;;;;;;;35.92;17.13;;;18.90;99.90;;;;;;5073761;28;20033;-67
2023/10/03 01:08:32;;;;;;;38.28;17.40;;;18.90;99.90;;;;;;5073514;28;20581;-67
2023/10/03 01:11:00;;;;;;;35.92;17.00;;;19.00;99.90;;;;;;5073955;28;20050;-67
2023/10/03 01:13:27;;;;;;;36.70;17.10;;;18.90;99.90;;;;;;5073870;28;20112;-67
2023/10/03 01:15:56;;;;;;;35.55;16.88;;;18.90;99.90;;;;;;5073672;28;20541;-67
2023/10/03 01:18:22;;;;;;;36.72;16.67;;;18.90;99.90;;;;;;5073460;28;20028;-67
2023/10/03 01:20:50;;;;;;;37.67;16.80;;;19.00;99.90;;;;;;5072293;28;20079;-67
2023/10/03 01:23:16;;;;;;;33.47;15.98;;;18.90;99.90;;;;;;5070367;28;20036;-67
2023/10/03 01:25:43;;;;;;;36.28;15.50;;;19.00;99.90;;;;;;5071626;28;20062;-67
2023/10/03 01:28:13;;;;;;;37.13;16.90;;;18.90;99.90;;;;;;5071864;28;20020;-67
2023/10/03 01:30:43;;;;;;;33.63;16.25;;;18.90;99.90;;;;;;5072888;28;20023;-67
2023/10/03 01:33:10;;;;;;;37.05;17.05;;;18.90;99.90;;;;;;5072789;28;20043;-67
2023/10/03 01:35:35;;;;;;;34.65;17.05;;;18.90;99.90;;;;;;5072641;28;20060;-66
2023/10/03 01:38:01;;;;;;;36.45;17.98;;;18.90;99.90;;;;;;5072638;28;20432;-67
2023/10/03 01:40:27;;;;;;;34.33;16.52;;;18.90;99.90;;;;;;5072890;28;20040;-67
2023/10/03 01:42:53;;;;;;;36.17;17.58;;;18.90;99.90;;;;;;5072842;28;20044;-67
2023/10/03 01:45:24;;;;;;;32.70;17.50;;;18.90;99.90;;;;;;5072079;28;20028;-66
2023/10/03 01:47:51;;;;;;;37.92;17.98;;;19.00;99.90;;;;;;5072443;28;20020;-67
2023/10/03 01:50:21;;;;;;;35.28;16.90;;;18.90;99.90;;;;;;5072644;28;20531;-67
2023/10/03 01:52:47;;;;;;;35.08;16.70;;;18.90;99.90;;;;;;5073193;28;20024;-67
2023/10/03 01:55:16;;;;;;;32.97;16.85;;;18.90;99.90;;;;;;5075834;28;20029;-68
2023/10/03 01:57:42;;;;;;;37.75;15.70;;;18.90;99.90;;;;;;5088126;28;20085;-66
2023/10/03 02:00:25;;;;;;;33.75;16.60;;;18.90;99.90;;;;;;5076087;28;20103;-68
2023/10/03 02:02:53;;;;;;;32.65;17.00;;;19.00;99.90;;;;;;5085781;28;20034;-67
2023/10/03 02:05:26;;;;;;;36.33;15.05;;;19.00;99.90;;;;;;5080937;28;20024;-68
2023/10/03 02:07:57;;;;;;;33.05;15.40;;;19.00;99.90;;;;;;5089570;28;20074;-67
2023/10/03 02:10:23;;;;;;;33.15;15.68;;;19.10;99.90;;;;;;5076935;28;20392;-67
2023/10/03 02:12:48;;;;;;;33.17;16.27;;;19.20;99.90;;;;;;5092663;28;20031;-67
2023/10/03 02:15:23;;;;;;;31.75;14.57;;;19.20;99.90;;;;;;5081524;28;20063;-67
2023/10/03 02:17:50;;;;;;;31.27;13.75;;;19.30;99.90;;;;;;5088710;28;20119;-67
2023/10/03 02:20:20;;;;;;;31.25;15.07;;;19.40;99.90;;;;;;5075356;28;20357;-67
2023/10/03 02:22:53;;;;;;;33.75;14.73;;;19.40;99.90;;;;;;5085106;28;20089;-67
2023/10/03 02:25:21;;;;;;;31.38;14.05;;;19.50;99.90;;;;;;5076906;28;20025;-67
2023/10/03 02:27:47;;;;;;;28.60;13.73;;;19.60;99.90;;;;;;5088540;28;20460;-67
2023/10/03 02:30:13;;;;;;;30.58;13.88;;;19.60;99.90;;;;;;5075902;28;20053;-67
2023/10/03 02:32:41;;;;;;;28.27;13.00;;;19.70;99.90;;;;;;5086170;28;20107;-67
2023/10/03 02:35:08;;;;;;;27.40;12.02;;;19.80;99.90;;;;;;5081340;28;20094;-67
2023/10/03 02:37:34;;;;;;;29.30;11.68;;;19.90;99.90;;;;;;5086327;28;20044;-67
2023/10/03 02:40:00;;;;;;;27.88;10.57;;;20.00;99.90;;;;;;5075665;28;20161;-67
2023/10/03 02:42:26;;;;;;;27.20;10.60;;;20.10;99.90;;;;;;5087759;28;20593;-67
2023/10/03 02:44:51;;;;;;;26.10;8.98;;;20.10;99.90;;;;;;5080278;28;20028;-68
2023/10/03 02:47:17;;;;;;;24.73;9.07;;;20.20;99.90;;;;;;5080376;28;20029;-67
2023/10/03 02:49:42;;;;;;;25.80;9.07;;;20.40;99.90;;;;;;5087100;28;20033;-68
2023/10/03 02:52:10;;;;;;;25.65;8.80;;;20.40;99.90;;;;;;5073232;28;20050;-68
2023/10/03 02:54:35;;;;;;;26.25;8.23;;;20.50;99.90;;;;;;5078103;28;20036;-67
2023/10/03 02:57:01;;;;;;;21.50;7.80;;;20.60;99.90;;;;;;5082706;28;20040;-67
2023/10/03 02:59:26;;;;;;;28.58;8.60;;;20.60;99.90;;;;;;5085052;28;20028;-67
2023/10/03 03:01:52;;;;;;;29.55;8.10;;;20.60;99.90;;;;;;5075512;28;20032;-68
2023/10/03 03:04:21;;;;;;;29.77;9.40;;;20.70;99.90;;;;;;5088297;28;20048;-67
2023/10/03 03:06:46;;;;;;;26.80;8.30;;;20.70;99.90;;;;;;5079655;28;20484;-67
2023/10/03 03:09:17;;;;;;;29.67;9.68;;;20.70;99.90;;;;;;5079770;28;20024;-68
2023/10/03 03:11:48;;;;;;;31.88;9.57;;;20.70;99.90;;;;;;5073388;28;20425;-68
2023/10/03 03:14:14;;;;;;;31.25;9.32;;;20.70;99.90;;;;;;5088553;28;20027;-68
2023/10/03 03:16:40;;;;;;;24.25;9.15;;;20.70;99.90;;;;;;5078532;28;20111;-68
2023/10/03 03:19:06;;;;;;;27.65;9.63;;;20.70;99.90;;;;;;5081832;28;20021;-68
2023/10/03 03:21:33;;;;;;;29.10;10.15;;;20.60;99.90;;;;;;5085693;28;20021;-68
2023/10/03 03:24:08;;;;;;;30.52;9.55;;;20.60;99.90;;;;;;5075161;28;20021;-68
2023/10/03 03:26:36;;;;;;;33.00;10.43;;;20.50;99.90;;;;;;5089485;28;20096;-68
2023/10/03 03:29:06;;;;;;;30.55;10.73;;;20.40;99.90;;;;;;5092169;28;20020;-67
2023/10/03 03:31:32;;;;;;;29.98;10.50;;;20.40;99.90;;;;;;5078137;28;20032;-67
2023/10/03 03:33:58;;;;;;;31.27;11.55;;;20.40;99.90;;;;;;5088095;28;20024;-67
2023/10/03 03:36:30;;;;;;;32.20;11.00;;;20.30;99.90;;;;;;5076155;28;20059;-67
2023/10/03 03:38:56;;;;;;;29.27;11.65;;;20.20;99.90;;;;;;5083029;28;20102;-67
2023/10/03 03:41:22;;;;;;;39.20;12.43;;;20.20;99.90;;;;;;5084086;28;20432;-69
2023/10/03 03:43:48;;;;;;;30.80;10.88;;;20.10;99.90;;;;;;5075682;28;20091;-67
2023/10/03 03:46:15;;;;;;;31.88;12.23;;;20.10;99.90;;;;;;5088081;28;20499;-66
2023/10/03 03:48:40;;;;;;;32.33;11.90;;;20.00;99.90;;;;;;5080629;28;20046;-66
2023/10/03 03:51:09;;;;;;;39.25;11.95;;;20.00;99.90;;;;;;5085124;28;20480;-66
2023/10/03 03:53:35;;;;;;;32.78;10.60;;;20.00;99.90;;;;;;5089888;28;20027;-66
2023/10/03 03:56:04;;;;;;;32.53;10.57;;;20.00;99.90;;;;;;5077149;28;20024;-67
2023/10/03 03:58:31;;;;;;;28.30;11.40;;;19.90;99.90;;;;;;5090125;28;20021;-67
2023/10/03 04:00:58;;;;;;;29.90;11.07;;;19.80;99.90;;;;;;5077650;28;20082;-68
2023/10/03 04:03:24;;;;;;;33.17;10.73;;;19.70;99.90;;;;;;5088152;28;20094;-67
2023/10/03 04:05:50;;;;;;;32.47;10.90;;;19.70;99.90;;;;;;5095751;28;20151;-67
2023/10/03 04:08:16;;;;;;;29.35;11.02;;;19.60;99.90;;;;;;5078847;28;20020;-67
2023/10/03 04:10:45;;;;;;;32.72;11.98;;;19.60;99.90;;;;;;5088518;28;20020;-67
2023/10/03 04:13:14;;;;;;;34.88;11.32;;;19.50;99.90;;;;;;5084846;28;20093;-67
2023/10/03 04:15:40;;;;;;;28.63;10.55;;;19.50;99.90;;;;;;5080295;28;20078;-67
2023/10/03 04:18:09;;;;;;;29.75;9.57;;;19.40;99.90;;;;;;5087227;28;20055;-67
2023/10/03 04:20:39;;;;;;;31.00;10.18;;;19.40;99.90;;;;;;5089410;28;20095;-67
2023/10/03 04:23:06;;;;;;;31.73;12.05;;;19.30;99.90;;;;;;5085183;28;20055;-67
2023/10/03 04:25:33;;;;;;;32.10;10.90;;;19.30;99.90;;;;;;5081361;28;20476;-68
2023/10/03 04:27:59;;;;;;;30.13;10.30;;;19.30;99.90;;;;;;5091667;28;20372;-68
2023/10/03 04:30:26;;;;;;;32.97;9.50;;;19.20;99.90;;;;;;5079546;28;20030;-67
2023/10/03 04:32:53;;;;;;;30.40;8.60;;;19.20;99.90;;;;;;5086663;28;20081;-68
2023/10/03 04:35:20;;;;;;;25.67;9.02;;;19.20;99.90;;;;;;5078782;28;20035;-68
2023/10/03 04:37:51;;;;;;;25.92;8.23;;;19.20;99.90;;;;;;5090800;28;20051;-68
2023/10/03 04:40:34;;;;;;;22.55;7.32;;;19.20;99.90;;;;;;5061737;28;20020;-68
2023/10/03 04:43:06;;;;;;;20.92;6.63;;;19.20;99.90;;;;;;5085284;28;20025;-68
2023/10/03 04:45:32;;;;;;;21.85;6.63;;;19.20;99.90;;;;;;5088619;28;20024;-68
2023/10/03 04:47:58;;;;;;;24.75;5.78;;;19.10;99.90;;;;;;5078112;28;20028;-68
2023/10/03 04:50:25;;;;;;;22.35;6.60;;;19.10;99.90;;;;;;5090001;28;20048;-68
2023/10/03 04:52:52;;;;;;;24.00;6.47;;;19.10;99.90;;;;;;5082593;28;20049;-68
2023/10/03 04:55:20;;;;;;;19.60;5.43;;;19.10;99.90;;;;;;5082189;28;20039;-68
2023/10/03 04:57:47;;;;;;;21.02;6.75;;;19.10;99.90;;;;;;5089922;28;20492;-66
2023/10/03 05:00:15;;;;;;;25.65;5.85;;;19.10;99.90;;;;;;5077278;28;20024;-67
2023/10/03 05:02:47;;;;;;;21.15;5.80;;;19.10;99.90;;;;;;5087629;28;20561;-67
2023/10/03 05:05:32;;;;;;;21.20;5.82;;;19.10;99.90;;;;;;5076659;28;20038;-67
2023/10/03 05:07:58;;;;;;;21.30;5.35;;;19.10;99.90;;;;;;5076905;28;20420;-67
2023/10/03 05:10:25;;;;;;;19.65;5.10;;;19.10;99.90;;;;;;5082241;28;20032;-67
2023/10/03 05:12:52;;;;;;;18.95;5.00;;;19.10;99.90;;;;;;5086165;28;20024;-68
2023/10/03 05:15:18;;;;;;;18.00;4.80;;;19.10;99.90;;;;;;5086020;28;20078;-68
2023/10/03 05:17:45;;;;;;;22.33;4.82;;;19.10;99.90;;;;;;5078301;28;20395;-68
2023/10/03 05:20:15;;;;;;;20.80;5.28;;;19.00;99.90;;;;;;5090582;28;20028;-68
2023/10/03 05:22:41;;;;;;;24.95;5.88;;;18.90;99.90;;;;;;5081287;28;20020;-67
2023/10/03 05:25:11;;;;;;;24.42;5.55;;;18.90;99.90;;;;;;5083341;28;20430;-68
2023/10/03 05:27:43;;;;;;;20.83;5.88;;;18.90;99.90;;;;;;5088308;28;20043;-68
2023/10/03 05:30:10;;;;;;;20.25;6.22;;;18.80;99.90;;;;;;5077151;28;20032;-68
2023/10/03 05:32:37;;;;;;;20.98;6.38;;;18.80;99.90;;;;;;5086543;28;20465;-68
2023/10/03 05:35:07;;;;;;;24.25;6.82;;;18.80;99.90;;;;;;5083560;28;20035;-68
2023/10/03 05:37:33;;;;;;;25.48;7.47;;;18.70;99.90;;;;;;5079905;28;20040;-68
2023/10/03 05:40:00;;;;;;;23.10;6.93;;;18.70;99.90;;;;;;5090056;28;20031;-68
2023/10/03 05:42:26;;;;;;;27.05;7.47;;;18.70;99.90;;;;;;5076877;28;20020;-68
2023/10/03 05:44:53;;;;;;;21.58;6.35;;;18.70;99.90;;;;;;5076365;28;20028;-67
2023/10/03 05:47:20;;;;;;;19.83;5.63;;;18.70;99.90;;;;;;5085328;28;20020;-68
2023/10/03 05:49:45;;;;;;;23.77;6.55;;;18.80;99.90;;;;;;5077366;28;20031;-68
2023/10/03 05:52:11;;;;;;;25.80;6.30;;;18.80;99.90;;;;;;5090176;28;20028;-68
2023/10/03 05:54:37;;;;;;;25.17;6.07;;;18.70;99.90;;;;;;5073195;28;20032;-68
2023/10/03 05:57:03;;;;;;;24.42;6.95;;;18.80;99.90;;;;;;5078242;28;20025;-68
2023/10/03 05:59:29;;;;;;;29.50;7.80;;;18.80;99.90;;;;;;5086315;28;20031;-68
2023/10/03 06:01:57;;;;;;;26.83;6.40;;;18.80;99.90;;;;;;5090026;28;20024;-68
2023/10/03 06:04:23;;;;;;;26.73;6.70;;;18.90;99.90;;;;;;5087792;28;20021;-67
2023/10/03 06:06:49;;;;;;;28.27;7.13;;;18.90;99.90;;;;;;5081215;28;20035;-66
2023/10/03 06:09:15;;;;;;;34.20;7.15;;;18.90;99.90;;;;;;5081480;28;20025;-67
2023/10/03 06:11:42;;;;;;;30.42;6.93;;;18.90;99.90;;;;;;5087162;28;20484;-67
2023/10/03 06:14:08;;;;;;;26.70;5.93;;;18.90;99.90;;;;;;5076048;28;20021;-65
2023/10/03 06:16:37;;;;;;;29.20;6.53;;;18.90;99.90;;;;;;5086689;28;20120;-65
2023/10/03 06:19:03;;;;;;;28.33;6.60;;;18.80;99.90;;;;;;5083116;28;20054;-65
2023/10/03 06:21:29;;;;;;;22.95;4.55;;;18.70;99.90;;;;;;5078581;28;20024;-65
2023/10/03 06:23:55;;;;;;;17.67;3.45;;;18.60;99.90;;;;;;5076875;28;20020;-65
2023/10/03 06:26:20;;;;;;;17.58;3.80;;;18.50;99.90;;;;;;5088647;28;20386;-65
2023/10/03 06:28:48;;;;;;;16.63;3.80;;;18.50;99.90;;;;;;5080058;28;20361;-65
2023/10/03 06:31:14;;;;;;;16.10;3.53;;;18.40;99.90;;;;;;5080908;28;20394;-65
2023/10/03 06:33:42;;;;;;;15.85;3.10;;;18.30;99.90;;;;;;5085655;28;20020;-65
2023/10/03 06:36:08;;;;;;;14.45;3.03;;;18.30;99.90;;;;;;5088991;28;20046;-65
2023/10/03 06:38:34;;;;;;;12.65;2.65;;;18.20;99.90;;;;;;5078311;28;20032;-65
2023/10/03 06:41:00;;;;;;;14.30;2.50;;;18.10;99.90;;;;;;5092823;28;20456;-65
2023/10/03 06:43:25;;;;;;;8.57;2.17;;;18.00;99.90;;;;;;5079532;28;20024;-65
2023/10/03 06:45:51;;;;;;;12.25;2.53;;;17.90;99.90;;;;;;5071937;28;20029;-65
2023/10/03 06:48:17;;;;;;;13.60;2.60;;;17.80;99.90;;;;;;5077237;28;20028;-65
2023/10/03 06:50:43;;;;;;;15.95;2.70;;;17.70;99.90;;;;;;5071782;28;20058;-65
2023/10/03 06:53:09;;;;;;;17.17;3.25;;;17.60;99.90;;;;;;5084274;28;20016;-65
2023/10/03 06:55:36;;;;;;;15.93;2.80;;;17.60;99.90;;;;;;5092658;28;20051;-65
2023/10/03 06:58:03;;;;;;;13.90;3.08;;;17.60;99.90;;;;;;5092374;28;20464;-65
2023/10/03 07:00:31;;;;;;;17.73;3.60;;;17.60;99.90;;;;;;5092456;28;20122;-65
2023/10/03 07:02:56;;;;;;;17.02;3.30;;;17.60;99.90;;;;;;5092433;28;20527;-66
2023/10/03 07:05:22;;;;;;;14.35;3.15;;;17.60;99.90;;;;;;5092422;28;20108;-66
2023/10/03 07:07:47;;;;;;;16.42;3.20;;;17.60;99.90;;;;;;5076334;28;20111;-66
2023/10/03 07:10:13;;;;;;;14.25;3.20;;;17.60;99.90;;;;;;5072397;28;20056;-65
2023/10/03 07:12:38;;;;;;;19.60;3.15;;;17.60;99.90;;;;;;5072399;28;20035;-65
2023/10/03 07:15:08;;;;;;;15.10;3.10;;;17.70;99.90;;;;;;5067480;28;20066;-66
2023/10/03 07:17:35;;;;;;;17.90;3.53;;;17.70;99.90;;;;;;5072137;28;20055;-66
2023/10/03 07:20:04;;;;;;;17.10;3.15;;;17.70;99.90;;;;;;5072135;28;20028;-66
2023/10/03 07:22:30;;;;;;;15.32;2.60;;;17.70;99.90;;;;;;5068326;28;20028;-65
2023/10/03 07:24:56;;;;;;;14.77;2.40;;;17.70;99.90;;;;;;5074767;28;20335;-67
2023/10/03 07:27:21;;;;;;;10.68;2.45;;;17.70;99.90;;;;;;5075872;28;20427;-67
2023/10/03 07:29:47;;;;;;;14.27;2.55;;;17.80;99.90;;;;;;5076062;28;20025;-67
2023/10/03 07:32:13;;;;;;;10.77;1.88;;;17.90;99.90;;;;;;5075936;28;20034;-67
2023/10/03 07:34:45;;;;;;;6.28;1.65;;;18.00;99.90;;;;;;5075800;28;20041;-67
2023/10/03 07:37:11;;;;;;;;;;;18.00;99.90;;;;;;5075255;28;20132;-66
2023/10/03 07:39:38;;;;;;;8.70;1.55;;;18.10;99.90;;;;;;5075461;28;19987;-66
2023/10/03 07:42:04;;;;;;;9.68;1.45;;;18.00;99.90;;;;;;5071176;28;20126;-65
2023/10/03 07:44:30;;;;;;;8.48;2.20;;;18.00;99.90;;;;;;5058840;28;20346;-65
2023/10/03 07:46:56;;;;;;;11.50;2.22;;;17.80;99.90;;;;;;5074972;28;20028;-65
2023/10/03 07:49:22;;;;;;;7.32;1.92;;;17.70;99.90;;;;;;5074145;28;20052;-64
2023/10/03 07:51:50;;;;;;;11.38;3.33;;;17.50;99.90;;;;;;5073788;28;20460;-64
2023/10/03 07:54:19;;;;;;;10.52;2.30;;;17.40;99.90;;;;;;5074176;28;20103;-65
2023/10/03 07:56:44;;;;;;;12.70;2.50;;;17.30;99.90;;;;;;5073966;28;20045;-65
2023/10/03 07:59:10;;;;;;;11.73;3.25;;;17.30;99.90;;;;;;5073430;28;20027;-65
2023/10/03 08:01:38;;;;;;;16.70;4.50;;;17.20;99.90;;;;;;5073979;28;20392;-65
2023/10/03 08:04:08;;;;;;;19.38;6.57;;;17.20;99.90;;;;;;5074051;28;20039;-65
2023/10/03 08:06:34;;;;;;;22.25;4.68;;;17.20;99.90;;;;;;5073510;28;20140;-65
2023/10/03 08:09:00;;;;;;;15.43;3.80;;;17.20;99.90;;;;;;5075525;28;20106;-65
2023/10/03 08:11:30;;;;;;;9.13;2.47;;;17.20;99.90;;;;;;5075345;28;20031;-65
2023/10/03 08:13:56;;;;;;;17.67;5.63;;;17.30;99.90;;;;;;5074932;28;20040;-66
2023/10/03 08:16:22;;;;;;;8.73;2.05;;;17.40;99.90;;;;;;5074944;28;20116;-66
2023/10/03 08:18:57;;;;;;;11.88;2.72;;;17.40;99.90;;;;;;5075032;28;20112;-66
2023/10/03 08:21:29;;;;;;;12.95;3.28;;;17.40;99.90;;;;;;5074154;28;20047;-66
2023/10/03 08:23:55;;;;;;;;;;;17.40;99.90;;;;;;5074839;28;20025;-66
2023/10/03 08:26:21;;;;;;;13.18;2.80;;;17.50;99.90;;;;;;5073792;28;19904;-66
2023/10/03 08:28:59;;;;;;;10.57;2.50;;;17.50;99.90;;;;;;5074503;28;20037;-66
2023/10/03 08:31:28;;;;;;;12.10;2.40;;;17.50;99.90;;;;;;5073667;28;20124;-67
2023/10/03 08:33:57;;;;;;;10.63;3.17;;;17.60;99.90;;;;;;5071136;28;20484;-67
2023/10/03 08:36:27;;;;;;;11.75;2.80;;;17.60;99.90;;;;;;5065054;28;20119;-67
2023/10/03 08:38:57;;;;;;;9.80;2.33;;;17.60;99.90;;;;;;5054670;28;20481;-66
2023/10/03 08:41:37;;;;;;;10.63;2.60;;;17.60;99.90;;;;;;5054668;28;20025;-66
2023/10/03 08:44:05;;;;;;;10.32;2.30;;;17.60;99.90;;;;;;5054989;28;20094;-67
2023/10/03 08:46:36;;;;;;;12.35;2.42;;;17.60;99.90;;;;;;5054752;28;20091;-67
2023/10/03 08:49:08;;;;;;;7.28;1.88;;;17.60;99.90;;;;;;5062398;28;20027;-67
2023/10/03 08:51:35;;;;;;;;;;;17.60;99.90;;;;;;5075268;28;20051;-66
2023/10/03 08:54:11;;;;;;;5.93;1.45;;;17.60;99.90;;;;;;5074541;28;19908;-67
2023/10/03 08:56:39;;;;;;;8.93;1.90;;;17.70;99.90;;;;;;5074554;28;20071;-67
2023/10/03 08:59:09;;;;;;;4.50;1.40;;;17.80;99.90;;;;;;5073785;28;20102;-67
2023/10/03 09:01:43;;;;;;;6.65;1.85;;;17.90;99.90;;;;;;5074381;28;20050;-67
2023/10/03 09:04:15;;;;;;;7.63;2.53;;;18.10;99.90;;;;;;5074200;28;20059;-66
2023/10/03 09:06:45;;;;;;;8.52;1.85;;;18.20;99.90;;;;;;5073868;28;20051;-66
2023/10/03 09:09:16;;;;;;;9.68;2.42;;;18.20;99.90;;;;;;5073421;28;20028;-66
2023/10/03 09:11:44;;;;;;;11.50;2.85;;;18.20;99.90;;;;;;5074021;28;20032;-66
2023/10/03 09:14:19;;;;;;;9.02;3.08;;;18.20;99.90;;;;;;5074323;28;20028;-67
2023/10/03 09:16:50;;;;;;;6.22;2.47;;;18.30;99.90;;;;;;5074566;28;20479;-67
2023/10/03 09:19:25;;;;;;;11.20;2.58;;;18.20;99.90;;;;;;5074107;28;20043;-66
2023/10/03 09:21:52;;;;;;;9.35;2.80;;;18.30;99.90;;;;;;5073709;28;20464;-66
2023/10/03 09:24:24;;;;;;;8.10;2.45;;;18.20;99.90;;;;;;5073148;28;20404;-65
2023/10/03 09:26:51;;;;;;;9.85;2.42;;;18.00;99.90;;;;;;5073542;28;20484;-66
2023/10/03 09:29:30;;;;;;;12.48;3.25;;;17.90;99.90;;;;;;5073673;28;20427;-66
2023/10/03 09:32:12;;;;;;;10.93;3.42;;;17.80;99.90;;;;;;5073903;28;20052;-65
2023/10/03 09:34:41;;;;;;;;;;;17.60;99.90;;;;;;5073878;28;20052;-66
2023/10/03 09:37:07;;;;;;;10.88;2.78;;;17.40;99.90;;;;;;5073633;28;19923;-66
2023/10/03 09:39:47;;;;;;;8.43;2.63;;;17.30;99.90;;;;;;5073351;28;20085;-66
2023/10/03 09:42:18;;;;;;;12.60;3.47;;;17.20;99.90;;;;;;5073309;28;20443;-67
2023/10/03 09:44:46;;;;;;;15.93;3.63;;;17.20;99.90;;;;;;5073275;28;20040;-66
2023/10/03 09:47:13;;;;;;;11.13;3.30;;;17.20;99.90;;;;;;5073048;28;20047;-66
2023/10/03 09:49:39;;;;;;;11.80;3.00;;;17.30;99.90;;;;;;5073337;28;20060;-66
2023/10/03 09:52:24;;;;;;;10.60;3.10;;;17.30;99.90;;;;;;5073238;28;20028;-66
2023/10/03 09:54:54;;;;;;;10.40;3.08;;;17.20;99.90;;;;;;5072987;28;20048;-64
2023/10/03 09:57:21;;;;;;;12.32;3.15;;;17.20;99.90;;;;;;5073067;28;20738;-64
2023/10/03 09:59:48;;;;;;;12.77;3.00;;;17.10;99.90;;;;;;5083214;28;20574;-65
2023/10/03 10:02:30;;;;;;;17.23;3.67;;;17.00;99.90;;;;;;5087590;28;20032;-65
2023/10/03 10:05:07;;;;;;;17.52;4.15;;;16.90;99.90;;;;;;5073602;28;20107;-66
2023/10/03 10:07:39;;;;;;;17.17;3.78;;;16.70;99.90;;;;;;5093706;28;20122;-65
2023/10/03 10:10:14;;;;;;;11.55;3.38;;;16.60;99.90;;;;;;5093119;28;20111;-65
2023/10/03 10:13:05;;;;;;;15.23;2.90;;;16.50;99.90;;;;;;5093366;28;20486;-66
2023/10/03 10:15:31;;;;;;;19.38;3.85;;;16.50;99.90;;;;;;5091954;28;20479;-66
2023/10/03 10:17:56;;;;;;;11.52;2.78;;;16.40;99.90;;;;;;5093037;28;20067;-65
2023/10/03 10:20:49;;;;;;;21.35;3.90;;;16.40;99.90;;;;;;5093027;28;20399;-65
2023/10/03 10:25:42;;;;;;;13.10;3.45;;;16.30;99.90;;;;;;5054441;28;20071;-66
2023/10/03 10:28:12;;;;;;;13.48;2.97;;;16.30;99.90;;;;;;5053373;28;20039;-66
2023/10/03 10:30:39;;;;;;;17.60;3.00;;;16.30;99.90;;;;;;5056626;28;20060;-66
2023/10/03 10:33:23;;;;;;;18.73;3.60;;;16.30;99.90;;;;;;5092897;28;20020;-65
2023/10/03 10:35:56;;;;;;;14.55;3.47;;;16.30;99.90;;;;;;5093042;28;20040;-65
2023/10/03 10:38:44;;;;;;;16.27;2.83;;;16.40;99.90;;;;;;5084685;28;20044;-65
2023/10/03 10:44:16;;;;;;;10.65;2.33;;;16.40;99.90;;;;;;5072796;28;20035;-66
2023/10/03 10:46:47;;;;;;;11.17;2.70;;;16.40;99.90;;;;;;5072587;28;20028;-66
2023/10/03 10:49:30;;;;;;;14.15;3.20;;;16.30;99.90;;;;;;5072325;28;20036;-65
2023/10/03 10:52:01;;;;;;;14.98;3.08;;;16.20;99.90;;;;;;5072506;28;20052;-65
2023/10/03 10:54:31;;;;;;;13.77;3.17;;;16.10;99.90;;;;;;5072513;28;20071;-65
2023/10/03 10:57:01;;;;;;;13.35;2.75;;;16.00;99.90;;;;;;5071753;28;20052;-65
2023/10/03 10:59:27;;;;;;;14.55;3.08;;;15.90;99.90;;;;;;5072265;28;20522;-65
2023/10/03 11:01:53;;;;;;;14.07;2.70;;;15.80;99.90;;;;;;5072226;28;20539;-65
2023/10/03 11:04:26;;;;;;;12.48;2.85;;;15.80;99.90;;;;;;5070879;28;20108;-65
2023/10/03 11:06:55;;;;;;;17.13;3.30;;;15.80;99.90;;;;;;5074551;28;20043;-65
2023/10/03 11:09:21;;;;;;;17.58;3.00;;;15.90;99.90;;;;;;5072505;28;20453;-67
2023/10/03 11:11:47;;;;;;;15.23;3.17;;;16.00;99.90;;;;;;5072124;28;20116;-67
2023/10/03 11:14:33;;;;;;;15.75;3.22;;;16.10;99.90;;;;;;5068873;28;20100;-65
2023/10/03 11:16:59;;;;;;;17.88;4.35;;;16.10;99.90;;;;;;5072037;28;20096;-65
2023/10/03 11:19:27;;;;;;;19.35;4.25;;;16.10;99.90;;;;;;5078103;28;20073;-67
2023/10/03 11:21:53;;;;;;;15.55;3.72;;;16.00;99.90;;;;;;5092085;28;20044;-67
2023/10/03 11:24:19;;;;;;;16.38;3.72;;;16.00;99.90;;;;;;5071763;28;20028;-65
2023/10/03 11:26:47;;;;;;;16.00;3.95;;;16.00;99.90;;;;;;5071860;28;20040;-66
2023/10/03 11:29:15;;;;;;;18.92;5.50;;;16.00;99.90;;;;;;5071753;28;20486;-66
2023/10/03 11:31:42;;;;;;;18.65;6.20;;;16.10;99.90;;;;;;5072288;28;20025;-65
2023/10/03 11:34:08;;;;;;;20.00;7.25;;;16.30;99.90;;;;;;5072185;28;20039;-66
2023/10/03 11:36:44;;;;;;;16.42;5.15;;;16.50;99.90;;;;;;5072151;28;20380;-65
2023/10/03 11:39:12;;;;;;;18.80;5.32;;;16.70;99.90;;;;;;5064960;28;20493;-66
2023/10/03 11:41:38;;;;;;;12.55;3.90;;;16.90;99.90;;;;;;5061807;28;20036;-66
2023/10/03 11:44:15;;;;;;;15.82;4.13;;;17.00;99.90;;;;;;5051071;28;20033;-64
2023/10/03 11:46:41;;;;;;;10.50;3.00;;;17.00;99.90;;;;;;5051684;28;20052;-65
2023/10/03 11:49:08;;;;;;;13.20;3.67;;;17.10;99.90;;;;;;5051979;28;20036;-65
2023/10/03 11:51:34;;;;;;;16.95;4.50;;;17.00;99.90;;;;;;5050229;28;20052;-66
2023/10/03 11:54:00;;;;;;;12.40;3.25;;;16.90;99.90;;;;;;5051472;28;20469;-66
2023/10/03 11:56:25;;;;;;;20.02;6.18;;;16.80;99.90;;;;;;5069391;28;20047;-66
2023/10/03 11:58:52;;;;;;;17.33;8.57;;;16.70;99.90;;;;;;5072034;28;20029;-66
2023/10/03 12:01:18;;;;;;;17.73;4.28;;;16.60;99.90;;;;;;5071947;28;20043;-66
2023/10/03 12:03:43;;;;;;;16.98;4.20;;;16.70;99.90;;;;;;5072065;28;20024;-66
2023/10/03 12:06:09;;;;;;;18.70;6.50;;;16.70;99.90;;;;;;5084392;28;20024;-66
2023/10/03 12:08:40;;;;;;;18.70;5.60;;;16.90;99.90;;;;;;5092501;28;20059;-66
2023/10/03 12:11:07;;;;;;;13.50;2.93;;;17.10;99.90;;;;;;5095424;28;20107;-66
2023/10/03 12:13:33;;;;;;;11.27;3.38;;;17.30;99.90;;;;;;5075428;28;20025;-66
2023/10/03 12:15:58;;;;;;;13.95;4.45;;;17.50;99.90;;;;;;5071226;28;20438;-65
2023/10/03 12:18:26;;;;;;;15.75;3.70;;;17.60;99.90;;;;;;5064108;28;20446;-65
2023/10/03 12:20:52;;;;;;;11.15;3.47;;;17.60;99.90;;;;;;5055140;28;20025;-66
2023/10/03 12:23:18;;;;;;;11.85;3.17;;;17.60;99.90;;;;;;5054819;28;20037;-65
2023/10/03 12:25:43;;;;;;;12.40;3.13;;;17.50;99.90;;;;;;5055275;28;20029;-65
2023/10/03 12:28:10;;;;;;;14.93;3.88;;;17.40;99.90;;;;;;5054905;28;20076;-65
2023/10/03 12:30:35;;;;;;;17.13;3.97;;;17.40;99.90;;;;;;5073604;28;20051;-64
2023/10/03 12:33:01;;;;;;;10.27;3.80;;;17.50;99.90;;;;;;5075088;28;20376;-65
2023/10/03 12:35:26;;;;;;;12.52;3.65;;;17.60;99.90;;;;;;5074999;28;20028;-65
2023/10/03 12:37:55;;;;;;;17.02;5.63;;;17.60;99.90;;;;;;5074579;28;20036;-65
2023/10/03 12:40:22;;;;;;;17.33;4.00;;;17.60;99.90;;;;;;5074820;28;20189;-66
2023/10/03 12:42:50;;;;;;;10.77;3.53;;;17.50;99.90;;;;;;5072929;28;20024;-65
2023/10/03 12:45:20;;;;;;;9.02;3.03;;;17.30;99.90;;;;;;5074028;28;20024;-67
2023/10/03 12:47:48;;;;;;;15.63;5.88;;;17.00;99.90;;;;;;5074359;28;20043;-67